Time;durP1;ratioP1;P1;durP2;ratioP2;P2;SDS_P1;SDS_P2;PMS_P1;PMS_P2;Temp;Humidity;BMP_temperature;BMP_pressure;BME280_temperature;BME280_humidity;BME280_pressure;Samples;Min_cycle;Max_cycle;Signal;HPM_P1;HPM_P2
2021/07/13 00:01:31;;;;;;;3.80;3.50;;;23.10;99.90;;;;;;4922250;28;20221;-78
2021/07/13 00:03:57;;;;;;;5.00;4.47;;;23.10;99.90;;;;;;4911876;28;20600;-78
2021/07/13 00:06:24;;;;;;;3.93;3.63;;;23.00;99.90;;;;;;4924038;29;20227;-78
2021/07/13 00:08:53;;;;;;;6.40;4.23;;;23.00;99.90;;;;;;4908847;28;20453;-78
2021/07/13 00:11:20;;;;;;;4.07;3.67;;;23.00;99.90;;;;;;4918998;29;20468;-78
2021/07/13 00:13:47;;;;;;;4.07;3.77;;;22.90;99.90;;;;;;4918466;29;20527;-78
2021/07/13 00:16:14;;;;;;;5.40;4.90;;;22.90;99.90;;;;;;4922907;29;20461;-78
2021/07/13 00:18:40;;;;;;;4.30;3.90;;;22.90;99.90;;;;;;4907402;28;20454;-78
2021/07/13 00:21:07;;;;;;;3.90;3.60;;;22.80;99.90;;;;;;4923399;28;20451;-78
2021/07/13 00:23:37;;;;;;;4.03;3.63;;;22.80;99.90;;;;;;4928485;28;20504;-78
2021/07/13 00:26:04;;;;;;;3.70;3.40;;;22.80;99.90;;;;;;4908666;29;20465;-78
2021/07/13 00:28:31;;;;;;;4.40;4.10;;;22.80;99.90;;;;;;4931695;28;20450;-77
2021/07/13 00:30:59;;;;;;;4.10;3.77;;;22.80;99.90;;;;;;4928517;28;20458;-78
2021/07/13 00:33:25;;;;;;;3.67;3.37;;;22.80;99.90;;;;;;4912792;29;20555;-78
2021/07/13 00:35:51;;;;;;;4.13;3.80;;;22.80;99.90;;;;;;4931211;28;20443;-78
2021/07/13 00:38:17;;;;;;;3.60;3.30;;;22.80;99.90;;;;;;4907453;28;20455;-78
2021/07/13 00:40:43;;;;;;;3.40;3.10;;;22.80;99.90;;;;;;4928348;28;20221;-78
2021/07/13 00:43:09;;;;;;;4.10;3.70;;;22.80;99.90;;;;;;4907265;29;20238;-78
2021/07/13 00:45:35;;;;;;;4.90;2.87;;;22.80;99.90;;;;;;4921870;28;20813;-78
2021/07/13 00:48:02;;;;;;;3.60;3.30;;;22.80;99.90;;;;;;4915333;28;20244;-78
2021/07/13 00:50:28;;;;;;;4.07;3.77;;;22.80;99.90;;;;;;4899782;29;20539;-79
2021/07/13 00:52:58;;;;;;;3.43;3.20;;;22.80;99.90;;;;;;4905258;28;20482;-77
2021/07/13 00:55:24;;;;;;;4.00;3.63;;;22.80;99.90;;;;;;4917064;29;20238;-79
2021/07/13 00:57:50;;;;;;;3.70;3.40;;;22.70;99.90;;;;;;4922335;28;20455;-79
2021/07/13 01:00:19;;;;;;;3.93;3.63;;;22.70;99.90;;;;;;4940876;28;20468;-79
2021/07/13 01:02:48;;;;;;;4.33;3.70;;;22.70;99.90;;;;;;4915172;28;20834;-79
2021/07/13 01:05:20;;;;;;;3.77;2.97;;;22.70;99.90;;;;;;4906236;28;20498;-79
2021/07/13 01:08:04;;;;;;;4.20;3.90;;;22.70;99.90;;;;;;4907010;28;20534;-79
2021/07/13 01:10:48;;;;;;;3.40;3.17;;;22.70;99.90;;;;;;4921377;28;20478;-77
2021/07/13 01:13:43;;;;;;;4.07;3.77;;;22.70;99.90;;;;;;4915235;28;20475;-79
2021/07/13 01:16:31;;;;;;;4.03;3.63;;;22.60;99.90;;;;;;4938953;28;20455;-79
2021/07/13 01:19:48;;;;;;;3.57;3.27;;;22.60;99.90;;;;;;4941048;28;20806;-79
2021/07/13 01:22:19;;;;;;;3.80;3.50;;;22.60;99.90;;;;;;4915340;28;20549;-79
2021/07/13 01:25:07;;;;;;;4.40;3.77;;;22.60;99.90;;;;;;4925785;28;20473;-78
2021/07/13 01:27:48;;;;;;;4.13;3.77;;;22.60;99.90;;;;;;4917890;29;20498;-78
2021/07/13 01:30:27;;;;;;;4.10;3.70;;;22.60;99.90;;;;;;4939674;29;20455;-79
2021/07/13 01:32:58;;;;;;;5.70;3.97;;;22.60;99.90;;;;;;4914892;29;20889;-79
2021/07/13 01:35:59;;;;;;;6.37;3.97;;;22.60;99.90;;;;;;4920819;28;20969;-79
2021/07/13 01:38:27;;;;;;;4.07;3.77;;;22.50;99.90;;;;;;4881782;28;20461;-79
2021/07/13 01:41:03;;;;;;;3.47;3.17;;;22.50;99.90;;;;;;4920434;28;20950;-80
2021/07/13 01:43:29;;;;;;;3.57;3.27;;;22.50;99.90;;;;;;4928339;28;20465;-79
2021/07/13 01:45:57;;;;;;;6.57;4.20;;;22.50;99.90;;;;;;4928633;28;20460;-79
2021/07/13 01:48:27;;;;;;;5.33;3.97;;;22.50;99.90;;;;;;4909694;28;20470;-79
2021/07/13 01:50:54;;;;;;;4.40;4.00;;;22.50;99.90;;;;;;4907338;29;21033;-79
2021/07/13 01:54:01;;;;;;;5.57;4.00;;;22.50;99.90;;;;;;4939112;28;20455;-79
2021/07/13 01:56:50;;;;;;;4.80;3.97;;;22.50;99.90;;;;;;4898580;28;20458;-79
2021/07/13 01:59:18;;;;;;;3.80;3.50;;;22.40;99.90;;;;;;4942156;28;20819;-79
2021/07/13 02:01:46;;;;;;;4.07;3.77;;;22.40;99.90;;;;;;4942308;28;20469;-79
2021/07/13 02:04:12;;;;;;;4.30;4.00;;;22.40;99.90;;;;;;4919198;29;20901;-78
2021/07/13 02:06:42;;;;;;;4.17;3.83;;;22.40;99.90;;;;;;4919199;28;20458;-79
2021/07/13 02:09:11;;;;;;;4.47;4.07;;;22.40;99.90;;;;;;4950280;28;20452;-79
2021/07/13 02:11:42;;;;;;;4.10;3.77;;;22.30;99.90;;;;;;4917703;28;20469;-79
2021/07/13 02:14:08;;;;;;;4.80;4.07;;;22.30;99.90;;;;;;4927493;29;20494;-79
2021/07/13 02:16:34;;;;;;;4.40;3.97;;;22.30;99.90;;;;;;4929768;28;20455;-79
2021/07/13 02:19:00;;;;;;;5.00;3.63;;;22.30;99.90;;;;;;4891773;29;20815;-77
2021/07/13 02:21:25;;;;;;;4.27;3.90;;;22.30;99.90;;;;;;4917061;29;20231;-79
2021/07/13 02:23:51;;;;;;;4.77;4.37;;;22.30;99.90;;;;;;4906573;28;20289;-79
2021/07/13 02:26:28;;;;;;;4.40;4.07;;;22.30;99.90;;;;;;4907925;29;20273;-79
2021/07/13 02:29:14;;;;;;;3.90;3.43;;;22.30;99.90;;;;;;4937123;28;20241;-79
2021/07/13 02:31:58;;;;;;;4.27;3.87;;;22.30;99.90;;;;;;4940394;28;21076;-79
2021/07/13 02:34:27;;;;;;;4.53;4.23;;;22.30;99.90;;;;;;4929618;28;20462;-79
2021/07/13 02:36:57;;;;;;;3.70;3.47;;;22.20;99.90;;;;;;4910896;28;20577;-79
2021/07/13 02:39:24;;;;;;;4.10;3.80;;;22.20;99.90;;;;;;4936624;28;20454;-79
2021/07/13 02:41:52;;;;;;;3.90;3.60;;;22.20;99.90;;;;;;4924517;28;20446;-79
2021/07/13 02:44:20;;;;;;;4.03;3.60;;;22.20;99.90;;;;;;4911577;29;20995;-79
2021/07/13 02:46:46;;;;;;;3.80;3.37;;;22.20;99.90;;;;;;4943742;28;20993;-79
2021/07/13 02:49:20;;;;;;;4.70;4.13;;;22.20;99.90;;;;;;4921740;29;20458;-79
2021/07/13 02:51:48;;;;;;;4.57;3.77;;;22.10;99.90;;;;;;4925497;28;20215;-79
2021/07/13 02:54:16;;;;;;;3.83;3.53;;;22.10;99.90;;;;;;4943558;28;20466;-79
2021/07/13 02:56:43;;;;;;;3.97;3.57;;;22.10;99.90;;;;;;4931759;28;20482;-79
2021/07/13 02:59:09;;;;;;;4.60;4.20;;;22.10;99.90;;;;;;4919054;28;20480;-79
2021/07/13 03:01:36;;;;;;;5.70;4.17;;;22.10;99.90;;;;;;4921249;28;20828;-79
2021/07/13 03:04:04;;;;;;;4.13;3.73;;;22.10;99.90;;;;;;4898234;29;20486;-79
2021/07/13 03:06:31;;;;;;;4.20;3.80;;;22.10;99.90;;;;;;4931334;29;20502;-77
2021/07/13 03:08:57;;;;;;;4.60;3.80;;;22.10;99.90;;;;;;4938831;28;20520;-79
2021/07/13 03:11:23;;;;;;;3.57;3.10;;;22.10;99.90;;;;;;4939852;28;20453;-79
2021/07/13 03:13:50;;;;;;;4.60;4.07;;;22.10;99.90;;;;;;4914955;28;20211;-79
2021/07/13 03:16:16;;;;;;;3.90;3.57;;;22.10;99.90;;;;;;4925734;29;20466;-79
2021/07/13 03:18:41;;;;;;;3.70;3.40;;;22.00;99.90;;;;;;4926157;28;20467;-80
2021/07/13 03:21:09;;;;;;;4.20;3.90;;;22.00;99.90;;;;;;4917225;28;20216;-78
2021/07/13 03:23:39;;;;;;;4.20;3.90;;;22.00;99.90;;;;;;4894103;29;20243;-79
2021/07/13 03:26:06;;;;;;;4.13;3.73;;;22.00;99.90;;;;;;4918416;28;20479;-79
2021/07/13 03:28:33;;;;;;;5.13;4.43;;;22.00;99.90;;;;;;4940374;28;20495;-79
2021/07/13 03:30:59;;;;;;;3.50;3.30;;;22.00;99.90;;;;;;4928971;28;20454;-78
2021/07/13 03:33:25;;;;;;;4.40;4.00;;;22.00;99.90;;;;;;4926098;28;20461;-79
2021/07/13 03:35:55;;;;;;;5.00;4.37;;;21.90;99.90;;;;;;4939693;28;20983;-79
2021/07/13 03:38:21;;;;;;;5.17;4.77;;;21.90;99.90;;;;;;4912004;28;20513;-79
2021/07/13 03:40:48;;;;;;;9.47;4.20;;;21.90;99.90;;;;;;4941745;28;20475;-80
2021/07/13 03:43:15;;;;;;;4.30;3.90;;;21.90;99.90;;;;;;4938385;28;20230;-79
2021/07/13 03:45:41;;;;;;;3.90;3.50;;;21.90;99.90;;;;;;4940927;28;20466;-79
2021/07/13 03:48:10;;;;;;;4.30;3.90;;;21.90;99.90;;;;;;4944323;28;20474;-79
2021/07/13 03:50:37;;;;;;;4.50;4.20;;;21.90;99.90;;;;;;4924849;28;20459;-79
2021/07/13 03:53:03;;;;;;;4.37;3.97;;;21.90;99.90;;;;;;4912244;29;20478;-79
2021/07/13 03:55:29;;;;;;;4.30;4.00;;;21.80;99.90;;;;;;4926652;28;20492;-79
2021/07/13 03:57:56;;;;;;;4.40;4.10;;;21.80;99.90;;;;;;4941057;28;20454;-79
2021/07/13 04:00:24;;;;;;;5.17;4.77;;;21.80;99.90;;;;;;4947084;28;20481;-79
2021/07/13 04:02:50;;;;;;;5.40;4.47;;;21.80;99.90;;;;;;4927865;28;20522;-79
2021/07/13 04:05:16;;;;;;;5.20;4.47;;;21.80;99.90;;;;;;4943166;28;21173;-77
2021/07/13 04:07:42;;;;;;;4.43;4.03;;;21.80;99.90;;;;;;4937707;28;20491;-79
2021/07/13 04:10:11;;;;;;;4.50;4.10;;;21.80;99.90;;;;;;4929295;28;20458;-79
2021/07/13 04:12:37;;;;;;;5.10;4.70;;;21.70;99.90;;;;;;4938421;28;20461;-79
2021/07/13 04:15:05;;;;;;;5.23;4.73;;;21.70;99.90;;;;;;4937034;29;20467;-79
2021/07/13 04:17:31;;;;;;;5.63;4.70;;;21.70;99.90;;;;;;4900943;28;20277;-79
2021/07/13 04:19:57;;;;;;;5.67;4.90;;;21.70;99.90;;;;;;4907961;28;20478;-79
2021/07/13 04:22:22;;;;;;;5.77;5.17;;;21.70;99.90;;;;;;4918265;29;20235;-77
2021/07/13 04:24:48;;;;;;;5.03;4.60;;;21.70;99.90;;;;;;4909127;28;20223;-79
2021/07/13 04:27:14;;;;;;;5.13;4.60;;;21.70;99.90;;;;;;4909062;29;20623;-79
2021/07/13 04:29:40;;;;;;;4.40;4.00;;;21.60;99.90;;;;;;4921015;28;20285;-79
2021/07/13 04:32:06;;;;;;;3.90;3.60;;;21.60;99.90;;;;;;4910852;29;20231;-77
2021/07/13 04:34:54;;;;;;;4.10;3.80;;;21.60;99.90;;;;;;4913990;28;20187;-79
2021/07/13 04:37:32;;;;;;;5.37;4.17;;;21.60;99.90;;;;;;4925075;29;20497;-79
2021/07/13 04:40:44;;;;;;;4.33;3.93;;;21.60;99.90;;;;;;4941633;28;20822;-79
2021/07/13 04:43:10;;;;;;;3.90;3.37;;;21.60;99.90;;;;;;4924958;29;20458;-78
2021/07/13 04:45:36;;;;;;;5.13;4.37;;;21.60;99.90;;;;;;4921871;29;20550;-79
2021/07/13 04:48:02;;;;;;;3.00;2.80;;;21.60;99.90;;;;;;4916046;29;20310;-78
2021/07/13 04:50:31;;;;;;;3.53;3.33;;;21.60;99.90;;;;;;4894796;29;20223;-78
2021/07/13 04:53:05;;;;;;;3.60;3.30;;;21.60;99.90;;;;;;4918294;28;20457;-79
2021/07/13 04:55:31;;;;;;;3.67;3.37;;;21.60;99.90;;;;;;4896159;28;20463;-78
2021/07/13 04:58:53;;;;;;;4.03;2.73;;;21.60;99.90;;;;;;4921937;28;20607;-79
2021/07/13 05:01:28;;;;;;;3.87;2.67;;;21.60;99.90;;;;;;4918645;29;20226;-78
2021/07/13 05:04:12;;;;;;;2.60;2.40;;;21.60;99.90;;;;;;4921315;28;20986;-79
2021/07/13 05:07:16;;;;;;;2.60;2.40;;;21.50;99.90;;;;;;4944206;28;20461;-79
2021/07/13 05:09:45;;;;;;;2.70;2.50;;;21.50;99.90;;;;;;4928795;28;20838;-79
2021/07/13 05:12:42;;;;;;;2.50;2.30;;;21.50;99.90;;;;;;4962214;23;21045;-79
2021/07/13 05:19:51;;;;;;;1.87;1.77;;;21.40;99.90;;;;;;4938161;29;20414;-79
2021/07/13 05:22:19;;;;;;;1.83;1.73;;;21.50;99.90;;;;;;4925430;29;20466;-79
2021/07/13 05:24:44;;;;;;;1.90;1.80;;;21.50;99.90;;;;;;4892278;29;20466;-79
2021/07/13 05:27:22;;;;;;;2.37;2.20;;;21.50;99.90;;;;;;4908264;29;20464;-79
2021/07/13 05:33:45;;;;;;;2.27;2.13;;;21.40;99.90;;;;;;5904648;23;20552;-78
2021/07/13 05:36:11;;;;;;;2.40;2.27;;;21.40;99.90;;;;;;4922224;28;20466;-78
2021/07/13 05:42:33;;;;;;;1.90;1.80;;;21.40;99.90;;;;;;4945652;28;20214;-78
2021/07/13 05:48:54;;;;;;;2.20;2.10;;;21.40;99.90;;;;;;4935096;29;20521;-78
2021/07/13 06:04:44;;;;;;;2.90;2.70;;;21.40;99.90;;;;;;5371636;23;20638;-77
2021/07/13 06:23:51;;;;;;;3.50;3.20;;;21.40;99.90;;;;;;5623522;23;20928;-77
2021/07/13 06:26:42;;;;;;;3.03;2.83;;;21.40;99.90;;;;;;4918979;29;20459;-78
2021/07/13 06:37:22;;;;;;;3.43;3.13;;;21.40;99.90;;;;;;4914888;29;21147;-77
2021/07/13 06:40:43;;;;;;;3.60;3.30;;;21.40;99.90;;;;;;4897020;29;20830;-77
2021/07/13 06:47:17;;;;;;;3.30;3.10;;;21.30;99.90;;;;;;4850955;29;20471;-77
2021/07/13 06:56:24;;;;;;;3.17;2.97;;;21.40;99.90;;;;;;4966504;23;20720;-77
2021/07/13 06:59:15;;;;;;;3.50;3.20;;;21.40;99.90;;;;;;4918116;29;20490;-77
2021/07/13 07:05:51;;;;;;;3.03;2.83;;;21.40;99.90;;;;;;4920055;29;20615;-77
2021/07/13 07:12:21;;;;;;;3.77;3.47;;;21.40;99.90;;;;;;4931908;29;20475;-77
2021/07/13 07:14:52;;;;;;;3.43;3.13;;;21.40;99.90;;;;;;4896648;29;20490;-77
2021/07/13 07:23:52;;;;;;;3.53;3.27;;;21.40;99.90;;;;;;5598186;23;20549;-77
2021/07/13 07:27:05;;;;;;;3.30;3.00;;;21.40;99.90;;;;;;4919965;29;20555;-77
2021/07/13 07:29:58;;;;;;;3.77;3.40;;;21.40;99.90;;;;;;4905658;29;20518;-77
2021/07/13 07:36:25;;;;;;;4.33;3.93;;;21.50;99.90;;;;;;4931852;28;20523;-77
2021/07/13 07:49:15;;;;;;;3.53;3.10;;;21.50;99.90;;;;;;4888651;29;20483;-77
2021/07/13 07:52:06;;;;;;;3.53;3.33;;;21.50;99.90;;;;;;4931237;23;20515;-77
2021/07/13 07:54:47;;;;;;;3.23;2.93;;;21.50;99.90;;;;;;4904271;28;20467;-77
2021/07/13 08:04:14;;;;;;;4.00;3.60;;;21.50;99.90;;;;;;4947488;28;20558;-77
2021/07/13 08:10:57;;;;;;;3.70;3.40;;;21.50;99.90;;;;;;4861329;29;20449;-77
2021/07/13 08:13:26;;;;;;;3.90;3.50;;;21.50;99.90;;;;;;4996047;23;20471;-78
2021/07/13 08:16:01;;;;;;;4.10;3.70;;;21.50;99.90;;;;;;4909538;28;20836;-78
2021/07/13 08:18:33;;;;;;;4.00;3.70;;;21.50;99.90;;;;;;4935200;29;20530;-78
2021/07/13 08:24:11;;;;;;;4.37;4.00;;;21.50;99.90;;;;;;4912766;28;20489;-78
2021/07/13 08:29:50;;;;;;;3.53;3.23;;;21.50;99.90;;;;;;4914273;28;20618;-78
2021/07/13 08:36:44;;;;;;;3.80;3.50;;;21.60;99.90;;;;;;4894581;29;20529;-78
2021/07/13 08:39:28;;;;;;;3.17;2.77;;;21.50;99.90;;;;;;4883453;29;20454;-78
2021/07/13 08:42:16;;;;;;;3.83;3.53;;;21.60;99.90;;;;;;4864444;29;20473;-78
2021/07/13 08:45:26;;;;;;;3.30;3.10;;;21.60;99.90;;;;;;4850893;29;20489;-78
2021/07/13 08:47:58;;;;;;;3.60;3.30;;;21.60;99.90;;;;;;4892001;29;20469;-80
2021/07/13 08:54:20;;;;;;;3.90;3.60;;;21.60;99.90;;;;;;5397006;23;20998;-78
2021/07/13 08:56:47;;;;;;;3.20;3.00;;;21.60;99.90;;;;;;4956298;28;20541;-78
2021/07/13 08:59:13;;;;;;;3.70;3.40;;;21.60;99.90;;;;;;4941479;28;20464;-78
2021/07/13 09:02:22;;;;;;;3.47;3.20;;;21.60;99.90;;;;;;4980774;23;20856;-77
2021/07/13 09:04:49;;;;;;;3.53;3.23;;;21.60;99.90;;;;;;4924995;28;20615;-77
2021/07/13 09:07:23;;;;;;;3.00;2.80;;;21.60;99.90;;;;;;4916135;29;20521;-78
2021/07/13 09:10:34;;;;;;;3.20;3.00;;;21.60;99.90;;;;;;4914356;28;20230;-78
2021/07/13 09:13:13;;;;;;;3.37;3.00;;;21.60;99.90;;;;;;4952674;23;21005;-78
2021/07/13 09:19:30;;;;;;;3.87;3.57;;;21.60;99.90;;;;;;4930632;28;20452;-78
2021/07/13 09:22:56;;;;;;;4.27;3.97;;;21.60;99.90;;;;;;4946358;23;20471;-78
2021/07/13 09:26:28;;;;;;;3.33;3.13;;;21.70;99.90;;;;;;4907773;29;20814;-79
2021/07/13 09:33:22;;;;;;;3.70;3.40;;;21.70;99.90;;;;;;4959714;23;20508;-79
2021/07/13 09:43:05;;;;;;;5.13;4.53;;;21.70;99.90;;;;;;4956294;23;20602;-79
2021/07/13 09:46:44;;;;;;;10.67;6.80;;;21.70;99.90;;;;;;4916516;28;20493;-79
2021/07/13 09:53:42;;;;;;;11.80;10.57;;;21.70;99.90;;;;;;4924961;29;20530;-79
2021/07/13 09:57:16;;;;;;;5.57;5.10;;;21.70;99.90;;;;;;4930488;29;20629;-78
2021/07/13 09:59:58;;;;;;;4.20;3.90;;;21.70;99.90;;;;;;4885742;29;20842;-77
2021/07/13 10:02:42;;;;;;;5.97;4.90;;;21.70;99.90;;;;;;4898965;29;20467;-78
2021/07/13 10:06:03;;;;;;;4.90;4.50;;;21.70;99.90;;;;;;4897568;29;20482;-78
2021/07/13 10:11:57;;;;;;;4.40;4.00;;;21.70;99.90;;;;;;4836323;29;20591;-78
2021/07/13 10:14:58;;;;;;;4.27;3.93;;;21.70;99.90;;;;;;4883353;29;20441;-78
2021/07/13 10:17:52;;;;;;;3.70;3.40;;;21.70;99.90;;;;;;4907708;29;20478;-77
2021/07/13 10:20:22;;;;;;;4.10;3.57;;;21.70;99.90;;;;;;4915986;29;20468;-78
2021/07/13 10:23:34;;;;;;;4.03;3.70;;;21.80;99.90;;;;;;4912742;29;20463;-77
2021/07/13 10:26:36;;;;;;;3.87;3.47;;;21.80;99.90;;;;;;4856179;29;20968;-77
2021/07/13 10:29:39;;;;;;;3.80;3.50;;;21.80;99.90;;;;;;4899921;29;20450;-77
2021/07/13 10:32:17;;;;;;;3.57;3.27;;;21.80;99.90;;;;;;4893986;29;20464;-77
2021/07/13 10:42:32;;;;;;;4.00;3.70;;;21.80;99.90;;;;;;4930127;23;20505;-77
2021/07/13 10:53:13;;;;;;;3.53;3.20;;;21.80;99.90;;;;;;4974677;23;20537;-77
2021/07/13 10:59:57;;;;;;;3.37;3.17;;;21.80;99.90;;;;;;4882478;29;20474;-77
2021/07/13 11:09:43;;;;;;;3.30;3.00;;;21.80;99.90;;;;;;4853341;29;20459;-77
2021/07/13 11:12:22;;;;;;;4.00;3.60;;;21.80;99.90;;;;;;4823757;29;20456;-77
2021/07/13 11:18:39;;;;;;;3.90;3.60;;;21.90;99.90;;;;;;4795493;29;20846;-77
2021/07/13 11:21:30;;;;;;;3.10;2.80;;;21.90;99.90;;;;;;4823737;29;20463;-77
2021/07/13 11:28:42;;;;;;;3.50;3.20;;;21.90;99.90;;;;;;4869458;29;21071;-80
2021/07/13 11:31:08;;;;;;;3.37;3.03;;;21.90;99.90;;;;;;4838215;23;20508;-79
2021/07/13 11:38:14;;;;;;;3.10;2.80;;;21.90;99.90;;;;;;4948033;28;20664;-80
2021/07/13 11:40:42;;;;;;;3.00;2.80;;;21.90;99.90;;;;;;4940076;28;20544;-80
2021/07/13 11:43:27;;;;;;;3.63;3.33;;;21.90;99.90;;;;;;4905336;29;20988;-80
2021/07/13 11:46:42;;;;;;;4.07;3.70;;;21.90;99.90;;;;;;4902055;28;20575;-80
2021/07/13 11:49:34;;;;;;;3.80;3.40;;;21.90;99.90;;;;;;4914726;29;20471;-80
2021/07/13 11:52:49;;;;;;;3.60;3.30;;;21.90;99.90;;;;;;5083581;23;20579;-77
2021/07/13 11:55:32;;;;;;;3.90;3.33;;;21.90;99.90;;;;;;4908665;29;20452;-77
2021/07/13 11:58:42;;;;;;;3.83;3.53;;;21.90;99.90;;;;;;4921444;29;20478;-80
2021/07/13 12:01:38;;;;;;;3.13;2.83;;;21.80;99.90;;;;;;4891251;29;20554;-80
2021/07/13 12:04:15;;;;;;;3.60;3.20;;;21.90;99.90;;;;;;4907527;29;20547;-79
2021/07/13 12:06:44;;;;;;;3.47;3.17;;;21.80;99.90;;;;;;4912664;29;20542;-80
2021/07/13 12:09:23;;;;;;;3.33;3.10;;;21.80;99.90;;;;;;4912854;29;20459;-80
2021/07/13 12:12:12;;;;;;;3.77;3.47;;;21.80;99.90;;;;;;4885701;29;20471;-80
2021/07/13 12:19:05;;;;;;;4.30;4.00;;;21.90;99.90;;;;;;4919372;29;20431;-79
2021/07/13 12:22:46;;;;;;;4.50;4.20;;;21.90;99.90;;;;;;4986015;23;20562;-77
2021/07/13 12:25:39;;;;;;;4.60;4.20;;;21.90;99.90;;;;;;4915962;28;20508;-77
2021/07/13 12:28:17;;;;;;;4.60;4.20;;;21.90;99.90;;;;;;4910533;29;20485;-77
2021/07/13 12:35:07;;;;;;;4.30;3.93;;;21.90;99.90;;;;;;4918218;29;20491;-79
2021/07/13 12:45:27;;;;;;;4.07;3.67;;;21.80;99.90;;;;;;4896689;29;20475;-78
2021/07/13 12:48:50;;;;;;;4.17;3.83;;;21.80;99.90;;;;;;4898872;29;20459;-78
2021/07/13 12:51:44;;;;;;;3.93;3.60;;;21.80;99.90;;;;;;4918536;23;20461;-80
2021/07/13 12:59:06;;;;;;;3.13;2.83;;;21.80;99.90;;;;;;4928984;29;20419;-80
2021/07/13 13:01:39;;;;;;;2.20;2.00;;;21.80;99.90;;;;;;4892200;29;20544;-79
2021/07/13 13:19:29;;;;;;;0.70;0.60;;;21.40;99.90;;;;;;4879559;29;20480;-80
2021/07/13 13:28:25;;;;;;;0.57;0.57;;;20.80;99.90;;;;;;4864976;29;20477;-80
2021/07/13 13:44:02;;;;;;;0.70;0.70;;;20.40;99.90;;;;;;4953856;28;20517;-78
2021/07/13 13:50:04;;;;;;;0.57;0.50;;;20.30;99.90;;;;;;4942748;28;20490;-78
2021/07/13 13:56:19;;;;;;;0.60;0.60;;;20.10;99.90;;;;;;4934521;28;20551;-77
2021/07/13 13:59:35;;;;;;;0.40;0.40;;;20.00;99.90;;;;;;4944918;28;20572;-77
2021/07/13 14:02:10;;;;;;;0.40;0.40;;;20.00;99.90;;;;;;4950252;23;21035;-78
2021/07/13 14:04:45;;;;;;;0.50;0.40;;;19.90;99.90;;;;;;4893648;28;20476;-77
2021/07/13 14:07:22;;;;;;;0.40;0.40;;;19.90;99.90;;;;;;4891229;29;20456;-77
2021/07/13 14:14:17;;;;;;;0.40;0.33;;;19.60;99.90;;;;;;4830290;29;20564;-77
2021/07/13 14:17:04;;;;;;;0.40;0.40;;;19.60;99.90;;;;;;4810419;29;20502;-77
2021/07/13 14:19:30;;;;;;;0.60;0.50;;;19.60;99.90;;;;;;4851196;29;20489;-77
2021/07/13 14:21:57;;;;;;;0.40;0.40;;;19.50;99.90;;;;;;4871040;29;20603;-77
2021/07/13 14:24:23;;;;;;;0.53;0.50;;;19.40;99.90;;;;;;4863904;29;20466;-77
2021/07/13 14:26:49;;;;;;;0.40;0.40;;;19.30;99.90;;;;;;4868117;29;20480;-77
2021/07/13 14:29:15;;;;;;;0.50;0.40;;;19.30;99.90;;;;;;4876734;29;20245;-77
2021/07/13 14:31:43;;;;;;;0.40;0.30;;;19.30;99.90;;;;;;4888594;29;20232;-77
2021/07/13 14:34:09;;;;;;;0.40;0.40;;;19.20;99.90;;;;;;4887310;28;20227;-77
2021/07/13 14:36:35;;;;;;;0.40;0.40;;;19.10;99.90;;;;;;4893201;29;20430;-77
2021/07/13 14:43:07;;;;;;;0.40;0.40;;;19.00;99.90;;;;;;4881178;29;20282;-77
2021/07/13 14:49:13;;;;;;;0.40;0.30;;;18.90;99.90;;;;;;4880315;29;20449;-77
2021/07/13 14:52:41;;;;;;;1.13;0.40;;;18.90;99.90;;;;;;4870349;29;20457;-77
2021/07/13 14:55:37;;;;;;;0.40;0.40;;;18.90;99.90;;;;;;4877658;29;21013;-77
2021/07/13 15:01:54;;;;;;;0.40;0.40;;;18.80;99.90;;;;;;4850274;29;20617;-77
2021/07/13 15:04:19;;;;;;;0.50;0.40;;;18.80;99.90;;;;;;4851411;29;20920;-77
2021/07/13 15:06:45;;;;;;;0.60;0.50;;;18.90;99.90;;;;;;4861462;29;20225;-77
2021/07/13 15:13:45;;;;;;;0.53;0.37;;;19.00;99.90;;;;;;4978738;23;20707;-77
2021/07/13 15:20:14;;;;;;;0.40;0.40;;;19.00;99.90;;;;;;4940804;28;20524;-77
2021/07/13 15:22:58;;;;;;;0.50;0.30;;;19.00;99.90;;;;;;4914132;28;20513;-77
2021/07/13 15:33:44;;;;;;;0.50;0.40;;;18.90;99.90;;;;;;4999003;23;20474;-77
2021/07/13 15:36:34;;;;;;;0.50;0.40;;;18.90;99.90;;;;;;4909833;28;20505;-77
2021/07/13 15:42:54;;;;;;;0.80;0.40;;;19.00;99.90;;;;;;4978555;23;20526;-77
2021/07/13 15:45:53;;;;;;;1.13;0.50;;;19.00;99.90;;;;;;4917465;29;20549;-77
2021/07/13 15:54:28;;;;;;;0.50;0.50;;;19.20;99.90;;;;;;5216581;23;20501;-78
2021/07/13 16:00:42;;;;;;;0.50;0.50;;;19.30;99.90;;;;;;4953111;28;20416;-78
2021/07/13 16:13:51;;;;;;;0.40;0.40;;;19.40;99.90;;;;;;5076778;23;20503;-77
2021/07/13 16:16:17;;;;;;;1.17;0.70;;;19.40;99.90;;;;;;4907978;29;20434;-78
2021/07/13 16:33:20;;;;;;;0.50;0.50;;;19.60;99.90;;;;;;4996808;23;20478;-78
2021/07/13 16:36:36;;;;;;;0.50;0.50;;;19.60;99.90;;;;;;4877896;29;20469;-78
2021/07/13 16:39:34;;;;;;;0.60;0.43;;;19.60;99.90;;;;;;4877760;29;20434;-78
2021/07/13 16:42:59;;;;;;;0.93;0.60;;;19.60;99.90;;;;;;4880700;29;20458;-78
2021/07/13 16:49:35;;;;;;;0.50;0.40;;;19.70;99.90;;;;;;4882005;29;20418;-78
2021/07/13 16:52:41;;;;;;;2.50;0.60;;;19.70;99.90;;;;;;4951839;23;21101;-78
2021/07/13 17:03:45;;;;;;;1.10;0.57;;;19.70;99.90;;;;;;5077824;23;20868;-78
2021/07/13 17:06:37;;;;;;;0.80;0.80;;;19.80;99.90;;;;;;4884014;29;20598;-78
2021/07/13 17:09:03;;;;;;;1.83;1.00;;;19.70;99.90;;;;;;4895595;29;20633;-78
2021/07/13 17:12:03;;;;;;;1.27;1.17;;;19.80;99.90;;;;;;4883861;29;20525;-78
2021/07/13 17:18:46;;;;;;;1.70;1.60;;;19.80;99.90;;;;;;4870863;29;20417;-78
2021/07/13 17:23:56;;;;;;;3.10;2.80;;;19.70;99.90;;;;;;4933347;28;20549;-78
2021/07/13 17:33:32;;;;;;;1.87;1.63;;;19.70;99.90;;;;;;5132104;23;20467;-79
2021/07/13 17:46:51;;;;;;;1.63;1.50;;;19.50;99.90;;;;;;4947918;28;21058;-78
2021/07/13 17:49:24;;;;;;;1.20;1.10;;;19.50;99.90;;;;;;4858207;29;20991;-78
2021/07/13 17:51:50;;;;;;;1.20;1.10;;;19.50;99.90;;;;;;4992115;23;21002;-78
2021/07/13 17:58:05;;;;;;;0.87;0.87;;;19.50;99.90;;;;;;4936091;28;20494;-79
2021/07/13 18:10:33;;;;;;;1.30;1.20;;;19.10;99.90;;;;;;4948220;29;20511;-77
2021/07/13 18:13:10;;;;;;;1.20;1.10;;;19.00;99.90;;;;;;4916903;29;20459;-77
2021/07/13 18:16:02;;;;;;;1.20;1.10;;;19.00;99.90;;;;;;4918423;29;20861;-78
2021/07/13 18:29:34;;;;;;;0.77;0.77;;;18.90;99.90;;;;;;4940987;29;20522;-78
2021/07/13 18:37:36;;;;;;;0.63;0.63;;;18.80;99.90;;;;;;4941178;28;20459;-78
2021/07/13 18:40:24;;;;;;;1.07;0.97;;;18.80;99.90;;;;;;4934185;29;20530;-78
2021/07/13 18:58:18;;;;;;;1.43;0.80;;;18.60;99.90;;;;;;4890928;29;20804;-78
2021/07/13 19:05:31;;;;;;;3.80;0.70;;;18.60;99.90;;;;;;4879261;29;21028;-78
2021/07/13 19:11:59;;;;;;;0.53;0.53;;;18.80;99.90;;;;;;4909670;23;20511;-77
2021/07/13 19:14:36;;;;;;;0.77;0.77;;;18.70;99.90;;;;;;4909828;29;20805;-78
2021/07/13 19:17:33;;;;;;;1.30;1.20;;;18.80;99.90;;;;;;4904683;29;20444;-78
2021/07/13 19:19:59;;;;;;;1.33;1.23;;;18.70;99.90;;;;;;4916809;29;20451;-78
2021/07/13 19:22:34;;;;;;;1.00;1.00;;;18.60;99.90;;;;;;4898394;29;20867;-78
2021/07/13 19:25:07;;;;;;;1.37;1.27;;;18.60;99.90;;;;;;4915692;29;20738;-77
2021/07/13 19:27:58;;;;;;;1.03;0.97;;;18.60;99.90;;;;;;4865514;29;20450;-78
2021/07/13 19:30:45;;;;;;;1.40;1.00;;;18.60;99.90;;;;;;4869722;29;20475;-78
2021/07/13 19:34:28;;;;;;;1.07;1.00;;;18.60;99.90;;;;;;4893806;29;20524;-78
2021/07/13 19:43:57;;;;;;;2.30;1.63;;;18.50;99.90;;;;;;4951331;28;20558;-77
2021/07/13 20:11:45;;;;;;;1.27;1.10;;;18.40;99.90;;;;;;4923114;23;20486;-77
2021/07/13 20:21:53;;;;;;;1.20;1.03;;;18.50;99.90;;;;;;4950887;28;20459;-77
2021/07/13 20:24:20;;;;;;;1.67;1.40;;;18.40;99.90;;;;;;4901668;29;20842;-77
2021/07/13 20:26:48;;;;;;;1.27;1.17;;;18.40;99.90;;;;;;4914537;29;20492;-77
2021/07/13 20:32:57;;;;;;;2.87;1.57;;;18.40;99.90;;;;;;5761886;23;20674;-77
2021/07/13 20:39:39;;;;;;;2.30;1.77;;;18.40;99.90;;;;;;4922971;29;20202;-77
2021/07/13 20:42:08;;;;;;;1.80;1.70;;;18.30;99.90;;;;;;4869384;29;20522;-77
2021/07/13 20:44:52;;;;;;;1.70;1.60;;;18.30;99.90;;;;;;4889460;29;20440;-77
2021/07/13 20:53:52;;;;;;;1.90;1.80;;;18.20;99.90;;;;;;4952879;28;20474;-77
2021/07/13 21:04:11;;;;;;;1.77;1.67;;;18.10;99.90;;;;;;5043449;23;20601;-77
2021/07/13 21:13:55;;;;;;;1.87;1.77;;;18.00;99.90;;;;;;4915125;29;20472;-77
2021/07/13 21:16:34;;;;;;;2.70;1.43;;;18.00;99.90;;;;;;4898036;29;20463;-77
2021/07/13 21:19:47;;;;;;;5.23;1.60;;;18.00;99.90;;;;;;4910643;29;20452;-77
2021/07/13 21:22:40;;;;;;;2.07;1.70;;;17.90;99.90;;;;;;4973456;23;20564;-77
2021/07/13 21:32:50;;;;;;;2.10;1.83;;;17.80;99.90;;;;;;4892618;29;20429;-77
2021/07/13 21:35:35;;;;;;;1.60;1.50;;;17.80;99.90;;;;;;4843932;29;20518;-77
2021/07/13 21:42:00;;;;;;;1.73;1.63;;;17.80;99.90;;;;;;4930062;29;20490;-76
2021/07/13 21:45:18;;;;;;;2.47;1.93;;;17.80;99.90;;;;;;4910578;29;20594;-77
2021/07/13 21:48:08;;;;;;;1.80;1.70;;;17.80;99.90;;;;;;4916554;29;20451;-77